Time;durP1;ratioP1;P1;durP2;ratioP2;P2;SDS_P1;SDS_P2;PMS_P1;PMS_P2;Temp;Humidity;BMP_temperature;BMP_pressure;BME280_temperature;BME280_humidity;BME280_pressure;Samples;Min_cycle;Max_cycle;Signal;HPM_P1;HPM_P2
2022/07/20 00:02:21;;;;;;;;;;;27.50;28.80;;;;;;6289908;22;19911;-95
2022/07/20 00:04:50;;;;;;;;;;;27.40;28.90;;;;;;6291136;22;19907;-95
2022/07/20 00:07:16;;;;;;;;;;;27.30;29.20;;;;;;6290950;22;19947;-95
2022/07/20 00:12:26;;;;;;;;;;;27.20;29.70;;;;;;6317222;22;19901;-95
2022/07/20 00:14:52;;;;;;;;;;;27.10;29.90;;;;;;6290032;22;19907;-94
2022/07/20 00:17:25;;;;;;;;;;;27.00;30.10;;;;;;6318605;22;19960;-94
2022/07/20 00:19:51;;;;;;;;;;;26.90;30.10;;;;;;6291213;22;19943;-94
2022/07/20 00:22:16;;;;;;;;;;;26.80;30.10;;;;;;6292887;22;19925;-95
2022/07/20 00:24:42;;;;;;;;;;;26.80;30.20;;;;;;6319376;22;19906;-95
2022/07/20 00:27:08;;;;;;;;;;;26.80;30.30;;;;;;6317933;22;19989;-95
2022/07/20 00:29:33;;;;;;;;;;;26.70;30.50;;;;;;6291167;22;20258;-95
2022/07/20 00:31:59;;;;;;;;;;;26.70;30.70;;;;;;6289739;22;19918;-95
2022/07/20 00:34:44;;;;;;;;;;;26.60;30.80;;;;;;6290713;22;19950;-94
2022/07/20 00:37:09;;;;;;;;;;;26.50;30.80;;;;;;6288092;22;19911;-94
2022/07/20 00:39:35;;;;;;;;;;;26.50;30.80;;;;;;6288330;22;20369;-94
2022/07/20 00:42:02;;;;;;;;;;;26.50;30.80;;;;;;6287964;22;19907;-94
2022/07/20 00:44:28;;;;;;;;;;;26.40;30.70;;;;;;6289217;22;19960;-95
2022/07/20 00:47:03;;;;;;;;;;;26.30;30.90;;;;;;6289491;22;20320;-95
2022/07/20 00:49:28;;;;;;;;;;;26.30;31.00;;;;;;6287310;22;19911;-94
2022/07/20 00:51:54;;;;;;;;;;;26.30;31.00;;;;;;6287609;22;19961;-93
2022/07/20 00:54:29;;;;;;;;;;;26.30;31.20;;;;;;6287870;22;19903;-94
2022/07/20 00:56:54;;;;;;;;;;;26.30;31.40;;;;;;6289242;22;19907;-94
2022/07/20 00:59:20;;;;;;;;;;;26.30;31.60;;;;;;6288501;22;19926;-95
2022/07/20 01:01:46;;;;;;;;;;;26.40;31.60;;;;;;6291093;22;20287;-95
2022/07/20 01:04:11;;;;;;;;;;;26.40;31.60;;;;;;6289362;22;19903;-94
2022/07/20 01:06:40;;;;;;;;;;;26.40;31.50;;;;;;6289490;22;19922;-94
2022/07/20 01:09:05;;;;;;;;;;;26.30;31.50;;;;;;6290602;22;19914;-94
2022/07/20 01:11:34;;;;;;;;;;;26.30;31.60;;;;;;6315770;22;19906;-94
2022/07/20 01:14:00;;;;;;;;;;;26.30;31.80;;;;;;6288479;22;19907;-94
2022/07/20 01:16:29;;;;;;;;;;;26.30;31.70;;;;;;6289649;22;19903;-95
2022/07/20 01:18:54;;;;;;;;;;;26.30;31.70;;;;;;6288021;22;20229;-95
2022/07/20 01:21:20;;;;;;;;;;;26.40;31.50;;;;;;6289029;22;19903;-95
2022/07/20 01:23:45;;;;;;;;;;;26.30;31.50;;;;;;6288927;22;19907;-93
2022/07/20 01:26:20;;;;;;;;;;;26.30;31.60;;;;;;6317050;22;19970;-95
2022/07/20 01:28:46;;;;;;;;;;;26.30;31.50;;;;;;6290403;22;19911;-94
2022/07/20 01:31:11;;;;;;;;;;;26.40;31.50;;;;;;6316477;22;20312;-94
2022/07/20 01:33:37;;;;;;;;;;;26.30;31.50;;;;;;6287766;22;19911;-94
2022/07/20 01:36:02;;;;;;;;;;;26.40;31.50;;;;;;6288224;22;19907;-94
2022/07/20 01:38:28;;;;;;;;;;;26.30;31.50;;;;;;6289245;22;19907;-95
2022/07/20 01:40:53;;;;;;;;;;;26.30;31.40;;;;;;6288031;22;19907;-94
2022/07/20 01:43:19;;;;;;;;;;;26.30;31.40;;;;;;6287780;22;19907;-94
2022/07/20 01:45:44;;;;;;;;;;;26.20;31.60;;;;;;6287957;22;19907;-94
2022/07/20 01:48:10;;;;;;;;;;;26.20;31.60;;;;;;6287743;22;19907;-94
2022/07/20 01:50:38;;;;;;;;;;;26.20;31.70;;;;;;6287229;22;19907;-94
2022/07/20 01:53:03;;;;;;;;;;;26.20;31.80;;;;;;6287474;22;19907;-94
2022/07/20 01:55:29;;;;;;;;;;;26.10;32.00;;;;;;6299136;22;19907;-94
2022/07/20 01:57:55;;;;;;;;;;;26.00;32.00;;;;;;6275622;22;19911;-94
2022/07/20 02:00:21;;;;;;;;;;;25.90;32.20;;;;;;6302556;22;19947;-95
2022/07/20 02:02:46;;;;;;;;;;;25.80;32.30;;;;;;6288576;22;19911;-94
2022/07/20 02:05:12;;;;;;;;;;;25.80;32.40;;;;;;6292580;22;19950;-94
2022/07/20 02:07:39;;;;;;;;;;;25.80;32.40;;;;;;6331363;22;19915;-94
2022/07/20 02:10:10;;;;;;;;;;;25.80;32.60;;;;;;6301684;22;19911;-93
2022/07/20 02:12:38;;;;;;;;;;;25.70;32.70;;;;;;6274611;22;19911;-95
2022/07/20 02:15:05;;;;;;;;;;;25.70;32.80;;;;;;6298860;22;19903;-94
2022/07/20 02:17:30;;;;;;;;;;;25.60;32.90;;;;;;6289271;22;19933;-95
2022/07/20 02:19:58;;;;;;;;;;;25.50;33.10;;;;;;6302765;22;19911;-96
2022/07/20 02:22:27;;;;;;;;;;;25.40;33.20;;;;;;6303028;22;19914;-96
2022/07/20 02:24:53;;;;;;;;;;;25.30;33.50;;;;;;6303921;22;19917;-96
2022/07/20 02:27:24;;;;;;;;;;;25.30;33.60;;;;;;6292474;22;19907;-96
2022/07/20 02:29:50;;;;;;;;;;;25.20;33.80;;;;;;6296235;22;19918;-95
2022/07/20 02:32:15;;;;;;;;;;;25.10;33.90;;;;;;6295105;22;19907;-96
2022/07/20 02:34:41;;;;;;;;;;;25.10;33.80;;;;;;6294243;22;19992;-95
2022/07/20 02:37:06;;;;;;;;;;;25.10;33.90;;;;;;6292149;22;19903;-95
2022/07/20 02:39:32;;;;;;;;;;;25.10;34.10;;;;;;6293147;22;19918;-95
2022/07/20 02:41:58;;;;;;;;;;;25.10;34.40;;;;;;6294265;22;19973;-96
2022/07/20 02:44:24;;;;;;;;;;;25.00;34.70;;;;;;6294502;22;19945;-95
2022/07/20 02:46:52;;;;;;;;;;;25.00;34.80;;;;;;6294551;22;19903;-96
2022/07/20 02:49:17;;;;;;;;;;;25.00;35.20;;;;;;6289726;22;19915;-96
2022/07/20 02:51:43;;;;;;;;;;;25.00;35.50;;;;;;6296141;22;19907;-96
2022/07/20 02:54:09;;;;;;;;;;;25.00;35.30;;;;;;6277770;22;19934;-96
2022/07/20 02:56:37;;;;;;;;;;;25.00;35.10;;;;;;6305543;22;19903;-96
2022/07/20 02:59:02;;;;;;;;;;;25.10;35.10;;;;;;6292551;22;19911;-96
2022/07/20 03:01:28;;;;;;;;;;;25.10;35.00;;;;;;6299301;22;19933;-96
2022/07/20 03:03:53;;;;;;;;;;;25.10;35.00;;;;;;6294039;22;20312;-94
2022/07/20 03:06:24;;;;;;;;;;;25.20;35.30;;;;;;6291411;22;19898;-93
2022/07/20 03:08:51;;;;;;;;;;;25.10;35.90;;;;;;6307097;22;19899;-95
2022/07/20 03:11:17;;;;;;;;;;;25.00;36.00;;;;;;6301390;22;20416;-96
2022/07/20 03:13:52;;;;;;;;;;;25.00;35.80;;;;;;6297395;22;19907;-96
2022/07/20 03:16:17;;;;;;;;;;;24.90;35.70;;;;;;6305141;22;19922;-95
2022/07/20 03:18:43;;;;;;;;;;;24.90;35.90;;;;;;6296376;22;19915;-95
2022/07/20 03:21:15;;;;;;;;;;;24.80;36.00;;;;;;6296095;22;20319;-95
2022/07/20 03:23:50;;;;;;;;;;;24.80;36.20;;;;;;6306056;22;19931;-95
2022/07/20 03:26:15;;;;;;;;;;;24.80;36.00;;;;;;6296301;22;19903;-96
2022/07/20 03:28:41;;;;;;;;;;;24.80;36.00;;;;;;6292975;22;20238;-96
2022/07/20 03:31:06;;;;;;;;;;;24.80;35.80;;;;;;6290895;22;19965;-96
2022/07/20 03:33:32;;;;;;;;;;;24.90;35.70;;;;;;6317333;22;19954;-94
2022/07/20 03:35:57;;;;;;;;;;;25.00;35.70;;;;;;6290545;22;19961;-94
2022/07/20 03:38:26;;;;;;;;;;;24.90;35.80;;;;;;6289354;22;19911;-94
2022/07/20 03:40:54;;;;;;;;;;;24.90;35.70;;;;;;6295219;22;19910;-96
2022/07/20 03:43:20;;;;;;;;;;;24.90;35.70;;;;;;6297032;22;19972;-96
2022/07/20 03:45:45;;;;;;;;;;;25.00;35.70;;;;;;6291598;22;19911;-94
2022/07/20 03:48:11;;;;;;;;;;;25.00;35.70;;;;;;6288166;22;19909;-96
2022/07/20 03:50:36;;;;;;;;;;;25.10;35.80;;;;;;6286935;22;19937;-95
2022/07/20 03:53:05;;;;;;;;;;;25.10;35.90;;;;;;6286413;22;20334;-95
2022/07/20 03:55:30;;;;;;;;;;;25.20;35.80;;;;;;6286593;22;19918;-94
2022/07/20 03:57:56;;;;;;;;;;;25.30;35.80;;;;;;6286657;22;19903;-95
2022/07/20 04:00:22;;;;;;;;;;;25.50;35.70;;;;;;6286167;22;20315;-95
2022/07/20 04:02:47;;;;;;;;;;;25.60;35.60;;;;;;6287546;22;19906;-94
2022/07/20 04:05:16;;;;;;;;;;;25.80;35.50;;;;;;6315114;22;20270;-95
2022/07/20 04:07:41;;;;;;;;;;;26.10;35.40;;;;;;6314941;22;20235;-94
2022/07/20 04:10:07;;;;;;;;;;;26.30;35.20;;;;;;6287028;22;19967;-95
2022/07/20 04:12:32;;;;;;;;;;;26.60;35.10;;;;;;6286387;22;19913;-95
2022/07/20 04:14:58;;;;;;;;;;;26.90;34.90;;;;;;6285795;22;19963;-95
2022/07/20 04:17:26;;;;;;;;;;;27.20;34.80;;;;;;6288016;22;19907;-95
2022/07/20 04:19:51;;;;;;;;;;;27.60;34.50;;;;;;6287633;22;19961;-95
2022/07/20 04:22:17;;;;;;;;;;;27.90;34.20;;;;;;6315449;22;19907;-95
2022/07/20 04:24:42;;;;;;;;;;;28.30;33.90;;;;;;6287572;22;19911;-95
2022/07/20 04:27:08;;;;;;;;;;;28.60;33.50;;;;;;6288067;22;19926;-95
2022/07/20 04:29:34;;;;;;;;;;;29.00;33.30;;;;;;6286387;22;19909;-94
2022/07/20 04:31:59;;;;;;;;;;;29.30;33.00;;;;;;6286618;22;19911;-93
2022/07/20 04:34:25;;;;;;;;;;;29.80;32.60;;;;;;6288565;22;19903;-93
2022/07/20 04:36:50;;;;;;;;;;;30.10;32.30;;;;;;6287450;22;20315;-93
2022/07/20 04:39:16;;;;;;;;;;;30.50;32.10;;;;;;6288014;22;19932;-94
2022/07/20 04:41:41;;;;;;;;;;;30.90;31.70;;;;;;6288101;22;19915;-94
2022/07/20 04:44:07;;;;;;;;;;;31.30;31.20;;;;;;6290152;22;19997;-94
2022/07/20 04:46:33;;;;;;;;;;;31.70;30.90;;;;;;6287896;22;19915;-94
2022/07/20 04:49:00;;;;;;;;;;;32.00;30.50;;;;;;6288421;22;19909;-94
2022/07/20 04:51:32;;;;;;;;;;;32.40;30.00;;;;;;6299933;22;19922;-96
2022/07/20 04:53:57;;;;;;;;;;;32.80;29.70;;;;;;6292194;22;19914;-94
2022/07/20 04:56:23;;;;;;;;;;;33.30;29.30;;;;;;6289649;22;19910;-94
2022/07/20 04:58:52;;;;;;;;;;;33.70;28.80;;;;;;6289540;22;19956;-95
2022/07/20 05:01:18;;;;;;;;;;;34.10;28.40;;;;;;6288037;22;19922;-95
2022/07/20 05:03:49;;;;;;;;;;;34.60;27.90;;;;;;6289458;22;19942;-94
2022/07/20 05:06:16;;;;;;;;;;;34.90;27.40;;;;;;6274417;22;19895;-95
2022/07/20 05:08:42;;;;;;;;;;;35.40;26.90;;;;;;6268769;22;19911;-94
2022/07/20 05:11:08;;;;;;;;;;;35.80;26.50;;;;;;6290154;22;19946;-94
2022/07/20 05:13:33;;;;;;;;;;;36.30;26.10;;;;;;6270041;22;19907;-94
2022/07/20 05:16:01;;;;;;;;;;;36.70;25.60;;;;;;6288876;22;19907;-94
2022/07/20 05:18:27;;;;;;;;;;;37.20;25.30;;;;;;6295942;22;19990;-94
2022/07/20 05:20:53;;;;;;;;;;;37.60;24.90;;;;;;6294368;22;19911;-95
2022/07/20 05:23:19;;;;;;;;;;;38.00;24.50;;;;;;6299944;22;19887;-94
2022/07/20 05:25:44;;;;;;;;;;;38.50;24.20;;;;;;6307537;22;19943;-95
2022/07/20 05:38:33;;;;;;;;;;;40.20;21.40;;;;;;6289019;22;19911;-95
2022/07/20 05:40:59;;;;;;;;;;;40.60;21.20;;;;;;6286424;22;19943;-95
2022/07/20 05:43:28;;;;;;;;;;;40.80;20.90;;;;;;6261220;22;19918;-95
2022/07/20 05:46:04;;;;;;;;;;;41.30;20.70;;;;;;6261335;22;20220;-95
2022/07/20 06:36:00;;;;;;;;;;;45.20;15.50;;;;;;6297061;22;19922;-96
2022/07/20 06:40:51;;;;;;;;;;;45.40;15.30;;;;;;6320561;22;19907;-96
2022/07/20 06:43:22;;;;;;;;;;;45.40;15.10;;;;;;6293218;22;19914;-96
2022/07/20 06:45:50;;;;;;;;;;;45.50;15.20;;;;;;6297686;22;19899;-96
2022/07/20 06:48:17;;;;;;;;;;;45.60;15.30;;;;;;6295956;22;19907;-96
2022/07/20 06:50:43;;;;;;;;;;;45.80;15.10;;;;;;6296088;22;20224;-96
2022/07/20 06:53:14;;;;;;;;;;;46.00;15.20;;;;;;6295094;22;19927;-96
2022/07/20 06:55:45;;;;;;;;;;;46.20;15.10;;;;;;6294810;22;19907;-96
2022/07/20 06:58:16;;;;;;;;;;;46.40;15.00;;;;;;6297505;22;19915;-96
2022/07/20 07:00:42;;;;;;;;;;;46.80;15.10;;;;;;6299708;22;19907;-96
2022/07/20 07:03:13;;;;;;;;;;;47.10;14.90;;;;;;6299501;22;19914;-96
2022/07/20 07:05:46;;;;;;;;;;;47.50;14.90;;;;;;6296917;22;19918;-96
2022/07/20 07:08:14;;;;;;;;;;;48.10;14.70;;;;;;6298466;22;20280;-96
2022/07/20 09:27:11;;;;;;;;;;;55.00;9.00;;;;;;6278673;22;19926;-91
2022/07/20 09:29:37;;;;;;;;;;;54.80;8.80;;;;;;6253242;22;19922;-92
2022/07/20 09:32:05;;;;;;;;;;;54.70;8.90;;;;;;6251830;22;19907;-93
2022/07/20 09:34:42;;;;;;;;;;;54.70;9.00;;;;;;6275885;22;19911;-93
2022/07/20 09:37:23;;;;;;;;;;;54.50;9.00;;;;;;6277188;22;19934;-93
2022/07/20 09:40:14;;;;;;;;;;;54.60;9.20;;;;;;6274530;22;19903;-94
2022/07/20 09:42:41;;;;;;;;;;;54.80;9.20;;;;;;6273663;22;19951;-93
2022/07/20 09:45:39;;;;;;;;;;;55.00;9.20;;;;;;6278446;22;19915;-95
2022/07/20 09:48:12;;;;;;;;;;;55.30;9.10;;;;;;6287772;22;19908;-93
2022/07/20 09:51:15;;;;;;;;;;;55.40;8.90;;;;;;6257185;22;19963;-93
2022/07/20 09:53:53;;;;;;;;;;;55.50;9.00;;;;;;6279145;22;19902;-94
2022/07/20 09:56:50;;;;;;;;;;;55.70;9.10;;;;;;6231529;23;20268;-94
2022/07/20 10:01:45;;;;;;;;;;;55.70;9.00;;;;;;6328334;22;19926;-93
2022/07/20 10:04:14;;;;;;;;;;;55.60;9.00;;;;;;6301972;22;19907;-93
2022/07/20 10:06:42;;;;;;;;;;;55.70;9.10;;;;;;6294811;22;19964;-94
2022/07/20 10:09:09;;;;;;;;;;;55.70;9.10;;;;;;6312648;22;20515;-94
2022/07/20 10:11:34;;;;;;;;;;;55.80;9.20;;;;;;6311996;22;19911;-93
2022/07/20 10:14:07;;;;;;;;;;;56.00;9.20;;;;;;6283466;22;19915;-94
2022/07/20 10:16:52;;;;;;;;;;;56.10;9.20;;;;;;6284551;22;19903;-94
2022/07/20 10:19:18;;;;;;;;;;;56.30;9.30;;;;;;6311898;22;19911;-91
2022/07/20 10:22:10;;;;;;;;;;;56.70;9.30;;;;;;6285301;22;19922;-93
2022/07/20 10:25:08;;;;;;;;;;;56.90;9.40;;;;;;6287820;22;19915;-94
2022/07/20 10:27:39;;;;;;;;;;;56.70;9.30;;;;;;6225443;22;19911;-93
2022/07/20 10:30:23;;;;;;;;;;;56.40;9.60;;;;;;6282351;22;19917;-93
2022/07/20 10:32:57;;;;;;;;;;;56.20;9.80;;;;;;6308534;22;19903;-92
2022/07/20 10:35:30;;;;;;;;;;;56.20;10.00;;;;;;6309170;22;19915;-92
2022/07/20 10:38:19;;;;;;;;;;;56.10;10.00;;;;;;6281594;22;19914;-92
2022/07/20 10:44:07;;;;;;;;;;;56.40;10.20;;;;;;6308243;22;20251;-94
2022/07/20 10:46:39;;;;;;;;;;;56.50;10.20;;;;;;6307126;22;19907;-93
2022/07/20 10:49:08;;;;;;;;;;;56.50;10.20;;;;;;6306387;22;19993;-92
2022/07/20 10:51:34;;;;;;;;;;;56.50;10.30;;;;;;6278347;22;19907;-92
2022/07/20 10:54:18;;;;;;;;;;;56.40;10.30;;;;;;6307740;22;19915;-93
2022/07/20 10:56:43;;;;;;;;;;;56.50;10.30;;;;;;6308923;22;19907;-91
2022/07/20 10:59:09;;;;;;;;;;;56.50;10.20;;;;;;6285927;22;19911;-95
2022/07/20 11:01:34;;;;;;;;;;;56.40;10.00;;;;;;6308788;22;19911;-92
2022/07/20 11:04:01;;;;;;;;;;;56.30;10.00;;;;;;6311542;22;19938;-94
2022/07/20 11:06:27;;;;;;;;;;;56.20;10.10;;;;;;6308858;22;19937;-92
2022/07/20 11:09:01;;;;;;;;;;;56.20;10.20;;;;;;6309936;22;19914;-94
2022/07/20 11:11:39;;;;;;;;;;;56.30;10.30;;;;;;6281800;22;19910;-92
2022/07/20 11:14:06;;;;;;;;;;;56.30;10.30;;;;;;6280032;22;19915;-92
2022/07/20 11:16:33;;;;;;;;;;;56.40;10.40;;;;;;6280918;22;19985;-93
2022/07/20 11:19:22;;;;;;;;;;;56.50;10.50;;;;;;6280511;22;19918;-93
2022/07/20 11:21:51;;;;;;;;;;;56.70;10.50;;;;;;6282658;22;19968;-94
2022/07/20 11:24:21;;;;;;;;;;;56.60;10.50;;;;;;6281500;22;19911;-93
2022/07/20 11:26:46;;;;;;;;;;;56.20;10.40;;;;;;6309226;22;19915;-93
2022/07/20 11:29:14;;;;;;;;;;;56.00;10.40;;;;;;6309629;22;19911;-94
2022/07/20 11:31:40;;;;;;;;;;;55.70;10.40;;;;;;6308855;22;19922;-93
2022/07/20 11:34:05;;;;;;;;;;;55.60;10.70;;;;;;6309540;22;19946;-93
2022/07/20 11:36:32;;;;;;;;;;;55.50;10.60;;;;;;6281862;22;19999;-92
2022/07/20 11:39:02;;;;;;;;;;;55.60;10.60;;;;;;6283468;22;19910;-92
2022/07/20 11:41:30;;;;;;;;;;;55.70;10.80;;;;;;6310054;22;19910;-93
2022/07/20 11:43:55;;;;;;;;;;;55.70;10.80;;;;;;6310748;22;20388;-94
2022/07/20 11:46:28;;;;;;;;;;;55.90;10.70;;;;;;6282573;22;19915;-93
2022/07/20 11:49:01;;;;;;;;;;;56.10;10.70;;;;;;6284929;22;19934;-94
2022/07/20 11:51:27;;;;;;;;;;;56.20;10.70;;;;;;6284014;22;20003;-92
2022/07/20 11:53:53;;;;;;;;;;;56.20;10.80;;;;;;6283815;22;20203;-94
2022/07/20 11:56:19;;;;;;;;;;;56.40;10.80;;;;;;6282849;22;19946;-93
2022/07/20 11:58:46;;;;;;;;;;;56.40;10.60;;;;;;6281798;22;19994;-94
2022/07/20 12:01:13;;;;;;;;;;;56.40;10.60;;;;;;6308392;22;19903;-93
2022/07/20 12:03:40;;;;;;;;;;;56.40;10.70;;;;;;6282372;22;19911;-94
2022/07/20 12:06:07;;;;;;;;;;;56.40;10.60;;;;;;6282089;22;19911;-95
2022/07/20 12:08:32;;;;;;;;;;;56.50;10.60;;;;;;6282590;22;19968;-90
2022/07/20 12:10:58;;;;;;;;;;;56.60;10.80;;;;;;6309370;22;19907;-94
2022/07/20 12:13:24;;;;;;;;;;;56.70;10.70;;;;;;6281658;22;19911;-93
2022/07/20 12:15:52;;;;;;;;;;;56.80;10.70;;;;;;6282616;22;19917;-93
2022/07/20 12:18:37;;;;;;;;;;;56.80;10.70;;;;;;6306673;22;19911;-94
2022/07/20 12:21:04;;;;;;;;;;;56.70;10.70;;;;;;6307014;22;20037;-93
2022/07/20 12:23:31;;;;;;;;;;;56.60;10.60;;;;;;6306775;22;20032;-94
2022/07/20 12:25:56;;;;;;;;;;;56.60;10.60;;;;;;6305370;22;20444;-91
2022/07/20 12:28:29;;;;;;;;;;;56.50;10.60;;;;;;6280175;22;19993;-93
2022/07/20 12:31:07;;;;;;;;;;;56.60;10.70;;;;;;6283616;22;19960;-94
2022/07/20 12:33:33;;;;;;;;;;;56.60;10.70;;;;;;6310687;22;19942;-93
2022/07/20 12:36:03;;;;;;;;;;;56.60;10.70;;;;;;6280543;22;19914;-92
2022/07/20 12:38:32;;;;;;;;;;;56.50;10.80;;;;;;6281644;22;19945;-94
2022/07/20 12:40:57;;;;;;;;;;;56.60;10.80;;;;;;6280536;22;19911;-92
2022/07/20 12:44:01;;;;;;;;;;;56.60;10.70;;;;;;6277475;22;19998;-92
2022/07/20 12:46:36;;;;;;;;;;;56.60;10.70;;;;;;6127681;23;19920;-93
2022/07/20 12:49:02;;;;;;;;;;;56.40;10.50;;;;;;6126513;23;19991;-93
2022/07/20 12:51:30;;;;;;;;;;;56.10;10.80;;;;;;6232078;22;19950;-91
2022/07/20 12:53:55;;;;;;;;;;;55.90;10.80;;;;;;6305255;22;20370;-94
2022/07/20 12:56:22;;;;;;;;;;;55.80;10.80;;;;;;6307362;22;19910;-93
2022/07/20 12:58:47;;;;;;;;;;;55.70;11.00;;;;;;6281872;22;19907;-94
2022/07/20 13:01:15;;;;;;;;;;;55.60;11.10;;;;;;6308906;22;19910;-92
2022/07/20 13:03:46;;;;;;;;;;;55.50;11.10;;;;;;6281401;22;19917;-93
2022/07/20 13:06:30;;;;;;;;;;;55.20;11.30;;;;;;6309403;22;20314;-94
2022/07/20 13:08:56;;;;;;;;;;;54.90;11.40;;;;;;6308708;22;19960;-93
2022/07/20 13:11:26;;;;;;;;;;;54.70;11.60;;;;;;6280179;22;19907;-94
2022/07/20 13:14:22;;;;;;;;;;;;;;;;;;;;;
2022/07/20 13:16:50;;;;;;;;;;;54.60;11.90;;;;;;6307219;22;20002;-93
2022/07/20 13:19:19;;;;;;;;;;;54.50;12.00;;;;;;6314742;22;19949;-94
2022/07/20 13:21:50;;;;;;;;;;;54.30;11.90;;;;;;6297328;22;19911;-92
2022/07/20 13:24:16;;;;;;;;;;;54.00;12.10;;;;;;6285854;22;19918;-92
2022/07/20 13:26:49;;;;;;;;;;;53.90;12.20;;;;;;6282783;22;20270;-93
2022/07/20 13:29:18;;;;;;;;;;;53.80;12.00;;;;;;6295854;22;19938;-94
2022/07/20 13:31:44;;;;;;;;;;;53.40;12.00;;;;;;6323938;22;19929;-93
2022/07/20 13:34:10;;;;;;;;;;;53.20;12.20;;;;;;6322608;22;20316;-94
2022/07/20 13:36:40;;;;;;;;;;;53.10;12.20;;;;;;6282991;22;19928;-92
2022/07/20 13:39:08;;;;;;;;;;;53.00;12.20;;;;;;6311633;22;19911;-92
2022/07/20 13:41:34;;;;;;;;;;;52.40;12.40;;;;;;6281161;22;19918;-93
2022/07/20 13:44:00;;;;;;;;;;;51.70;12.80;;;;;;6309464;22;19984;-92
2022/07/20 13:46:27;;;;;;;;;;;51.10;13.10;;;;;;6310943;22;19914;-93
2022/07/20 13:48:56;;;;;;;;;;;51.10;13.30;;;;;;6281547;22;19932;-93
2022/07/20 13:51:25;;;;;;;;;;;51.20;13.30;;;;;;6282967;22;20342;-94
2022/07/20 13:53:56;;;;;;;;;;;51.20;13.40;;;;;;6281260;22;19919;-94
2022/07/20 13:56:22;;;;;;;;;;;51.00;13.60;;;;;;6306830;22;19907;-94
2022/07/20 13:58:48;;;;;;;;;;;50.60;13.80;;;;;;6307591;22;19922;-93
2022/07/20 14:01:13;;;;;;;;;;;50.20;14.00;;;;;;6307685;22;19977;-93
2022/07/20 14:03:39;;;;;;;;;;;49.80;14.10;;;;;;6279883;22;19996;-93
2022/07/20 14:06:05;;;;;;;;;;;49.40;14.30;;;;;;6279429;22;20378;-93
2022/07/20 14:08:30;;;;;;;;;;;49.00;14.50;;;;;;6279346;22;19903;-93
2022/07/20 14:10:56;;;;;;;;;;;48.70;14.60;;;;;;6279536;22;19909;-92
2022/07/20 14:13:22;;;;;;;;;;;48.40;14.80;;;;;;6278965;22;19913;-93
2022/07/20 14:15:47;;;;;;;;;;;48.10;15.00;;;;;;6278511;22;20284;-93
2022/07/20 14:18:13;;;;;;;;;;;47.80;15.20;;;;;;6278453;22;19910;-92
2022/07/20 14:20:39;;;;;;;;;;;47.30;15.40;;;;;;6305809;22;19921;-94
2022/07/20 14:23:04;;;;;;;;;;;46.90;15.60;;;;;;6307680;22;19911;-92
2022/07/20 14:25:30;;;;;;;;;;;46.50;15.90;;;;;;6281040;22;19915;-93
2022/07/20 14:27:59;;;;;;;;;;;46.30;16.10;;;;;;6281743;22;19907;-92
2022/07/20 14:30:30;;;;;;;;;;;45.90;16.30;;;;;;6283122;22;19976;-92
2022/07/20 14:32:59;;;;;;;;;;;45.70;16.60;;;;;;6282229;22;19913;-91
2022/07/20 14:35:27;;;;;;;;;;;45.40;16.90;;;;;;6283287;22;20346;-91
2022/07/20 14:37:58;;;;;;;;;;;45.20;17.10;;;;;;6309971;22;19913;-93
2022/07/20 14:40:24;;;;;;;;;;;45.00;17.40;;;;;;6312763;22;19954;-92
2022/07/20 14:42:50;;;;;;;;;;;44.70;17.50;;;;;;6309393;22;19907;-94
2022/07/20 14:45:24;;;;;;;;;;;44.30;17.70;;;;;;6284380;22;19926;-93
2022/07/20 14:47:57;;;;;;;;;;;44.10;18.10;;;;;;6282859;22;19907;-92
2022/07/20 14:50:28;;;;;;;;;;;43.90;18.30;;;;;;6308826;22;20274;-91
2022/07/20 14:52:53;;;;;;;;;;;43.70;18.50;;;;;;6281295;22;19964;-93
2022/07/20 14:55:22;;;;;;;;;;;43.60;18.60;;;;;;6309550;22;19907;-92
2022/07/20 14:57:56;;;;;;;;;;;43.50;18.80;;;;;;6283103;22;19907;-92
2022/07/20 15:00:25;;;;;;;;;;;43.30;18.80;;;;;;6290604;22;19907;-93
2022/07/20 15:02:53;;;;;;;;;;;43.10;18.90;;;;;;6282372;22;19911;-89
2022/07/20 15:05:20;;;;;;;;;;;43.10;19.10;;;;;;6310219;22;19902;-92
2022/07/20 15:07:45;;;;;;;;;;;42.80;19.20;;;;;;6282210;22;19964;-90
2022/07/20 15:10:10;;;;;;;;;;;42.70;19.30;;;;;;6282001;22;19911;-91
2022/07/20 15:12:36;;;;;;;;;;;42.60;19.40;;;;;;6312706;22;19911;-91
2022/07/20 15:15:03;;;;;;;;;;;42.40;19.50;;;;;;6282597;22;19998;-91
2022/07/20 15:17:29;;;;;;;;;;;42.30;19.50;;;;;;6285161;22;19938;-92
2022/07/20 15:19:55;;;;;;;;;;;42.30;19.60;;;;;;6315814;22;19929;-92
2022/07/20 15:22:22;;;;;;;;;;;42.20;19.60;;;;;;6286615;22;19919;-91
2022/07/20 15:24:48;;;;;;;;;;;42.20;19.70;;;;;;6287170;22;20598;-93
2022/07/20 15:27:15;;;;;;;;;;;42.30;19.70;;;;;;6286684;22;19929;-92
2022/07/20 15:29:48;;;;;;;;;;;42.30;19.70;;;;;;6309117;22;19915;-93
2022/07/20 15:32:19;;;;;;;;;;;42.20;19.60;;;;;;6283453;22;19922;-93
2022/07/20 15:34:55;;;;;;;;;;;42.30;19.60;;;;;;6283623;22;20330;-91
2022/07/20 15:37:23;;;;;;;;;;;42.20;19.60;;;;;;6313825;22;20633;-93
2022/07/20 15:39:52;;;;;;;;;;;42.20;19.70;;;;;;6283790;22;19926;-92
2022/07/20 15:42:24;;;;;;;;;;;42.10;19.80;;;;;;6311529;22;19911;-93
2022/07/20 15:44:50;;;;;;;;;;;42.00;20.10;;;;;;6281629;22;19915;-93
2022/07/20 15:47:20;;;;;;;;;;;41.90;20.40;;;;;;6311262;22;19947;-91
2022/07/20 15:49:49;;;;;;;;;;;41.80;20.80;;;;;;6284261;22;20287;-93
2022/07/20 15:52:16;;;;;;;;;;;41.70;21.00;;;;;;6282720;22;19984;-94
2022/07/20 15:54:42;;;;;;;;;;;41.60;21.30;;;;;;6284739;22;19915;-91
2022/07/20 15:57:20;;;;;;;;;;;41.50;21.70;;;;;;6286514;22;19985;-91
2022/07/20 15:59:56;;;;;;;;;;;41.40;21.90;;;;;;6310254;22;20301;-91
2022/07/20 16:02:28;;;;;;;;;;;41.30;22.00;;;;;;6308722;22;19922;-91
2022/07/20 16:04:53;;;;;;;;;;;41.20;22.10;;;;;;6310528;22;19921;-92
2022/07/20 16:07:19;;;;;;;;;;;41.00;22.30;;;;;;6282018;22;19950;-90
2022/07/20 16:09:46;;;;;;;;;;;41.00;22.50;;;;;;6255900;22;19922;-91
2022/07/20 16:12:12;;;;;;;;;;;40.90;22.60;;;;;;6289023;22;19907;-90
2022/07/20 16:14:38;;;;;;;;;;;40.80;22.60;;;;;;6282554;22;19950;-90
2022/07/20 16:17:11;;;;;;;;;;;40.70;22.80;;;;;;6282285;22;19914;-92
2022/07/20 16:19:39;;;;;;;;;;;40.60;22.70;;;;;;6281945;22;19911;-92
2022/07/20 16:22:08;;;;;;;;;;;40.50;22.90;;;;;;6283167;22;20252;-93
2022/07/20 16:24:34;;;;;;;;;;;40.40;23.00;;;;;;6283933;22;20239;-92
2022/07/20 16:27:04;;;;;;;;;;;40.30;23.10;;;;;;6296599;22;19903;-91
2022/07/20 16:29:30;;;;;;;;;;;40.20;23.10;;;;;;6287004;22;19914;-91
2022/07/20 16:32:18;;;;;;;;;;;40.20;23.20;;;;;;6314261;22;20306;-91
2022/07/20 16:34:44;;;;;;;;;;;40.20;23.20;;;;;;6290827;22;19911;-90
2022/07/20 16:37:10;;;;;;;;;;;40.10;23.30;;;;;;6288064;22;19963;-92
2022/07/20 16:39:40;;;;;;;;;;;39.90;23.30;;;;;;6312706;22;19989;-90
2022/07/20 16:42:06;;;;;;;;;;;39.90;23.40;;;;;;6298714;22;20497;-93
2022/07/20 16:44:32;;;;;;;;;;;39.80;23.40;;;;;;6291097;22;19911;-91
2022/07/20 16:47:07;;;;;;;;;;;39.80;23.50;;;;;;6282575;22;19938;-93
2022/07/20 16:49:33;;;;;;;;;;;39.70;23.60;;;;;;6287249;22;19907;-92
2022/07/20 16:52:05;;;;;;;;;;;39.70;23.70;;;;;;6286740;22;19953;-92
2022/07/20 16:54:31;;;;;;;;;;;39.70;23.80;;;;;;6292370;22;19907;-92
2022/07/20 16:56:56;;;;;;;;;;;39.60;23.70;;;;;;6281783;22;19922;-90
2022/07/20 16:59:31;;;;;;;;;;;39.60;23.70;;;;;;6309921;22;19911;-93
2022/07/20 17:01:57;;;;;;;;;;;39.50;23.70;;;;;;6308941;22;20388;-90
2022/07/20 17:04:45;;;;;;;;;;;39.50;23.80;;;;;;6308777;22;19906;-92
2022/07/20 17:07:14;;;;;;;;;;;39.50;23.90;;;;;;6284082;22;19915;-92
2022/07/20 17:09:43;;;;;;;;;;;39.40;23.90;;;;;;6290058;22;19919;-90
2022/07/20 17:12:08;;;;;;;;;;;39.30;24.00;;;;;;6284042;22;19911;-91
2022/07/20 17:14:37;;;;;;;;;;;39.30;24.20;;;;;;6283817;22;19918;-92
2022/07/20 17:17:11;;;;;;;;;;;39.20;24.10;;;;;;6267501;22;19907;-91
2022/07/20 17:19:38;;;;;;;;;;;39.20;24.10;;;;;;6317250;22;19919;-90
2022/07/20 17:22:07;;;;;;;;;;;39.00;24.20;;;;;;6318756;22;19941;-91
2022/07/20 17:24:33;;;;;;;;;;;39.00;24.30;;;;;;6286197;22;19985;-93
2022/07/20 17:27:01;;;;;;;;;;;38.90;24.20;;;;;;6284996;22;19976;-92
2022/07/20 17:29:27;;;;;;;;;;;38.80;24.30;;;;;;6284081;22;19981;-90
2022/07/20 17:31:52;;;;;;;;;;;38.70;24.40;;;;;;6312790;22;19921;-90
2022/07/20 17:34:24;;;;;;;;;;;38.70;24.60;;;;;;6285835;22;19993;-92
2022/07/20 17:36:57;;;;;;;;;;;38.60;24.70;;;;;;6256929;22;19915;-90
2022/07/20 17:39:23;;;;;;;;;;;38.60;24.70;;;;;;6279075;22;20236;-93
2022/07/20 17:41:49;;;;;;;;;;;38.50;24.60;;;;;;6255793;22;19921;-90
2022/07/20 17:44:15;;;;;;;;;;;38.50;24.70;;;;;;6254228;22;19907;-91
2022/07/20 17:46:40;;;;;;;;;;;38.40;24.70;;;;;;6254345;22;20339;-91
2022/07/20 17:49:06;;;;;;;;;;;38.30;24.70;;;;;;6283758;22;19903;-89
2022/07/20 17:54:27;;;;;;;;;;;38.30;24.80;;;;;;6264437;22;19907;-92
2022/07/20 17:56:53;;;;;;;;;;;38.20;24.90;;;;;;6251466;22;19921;-90